Time;durP1;ratioP1;P1;durP2;ratioP2;P2;SDS_P1;SDS_P2;PMS_P1;PMS_P2;Temp;Humidity;BMP_temperature;BMP_pressure;BME280_temperature;BME280_humidity;BME280_pressure;Samples;Min_cycle;Max_cycle;Signal;HPM_P1;HPM_P2
2023/06/29 00:00:20;;;;;;;13.67;7.30;;;20.60;99.90;;;;;;5094486;28;20217;-44
2023/06/29 00:02:47;;;;;;;17.23;7.23;;;20.60;99.90;;;;;;5094266;28;20195;-44
2023/06/29 00:05:12;;;;;;;22.33;7.57;;;20.60;99.90;;;;;;5094182;28;20226;-43
2023/06/29 00:07:38;;;;;;;17.67;7.47;;;20.50;99.90;;;;;;5094434;28;20195;-40
2023/06/29 00:10:05;;;;;;;18.17;6.73;;;20.60;99.90;;;;;;5094457;28;20178;-42
2023/06/29 00:12:30;;;;;;;15.90;6.93;;;20.50;99.90;;;;;;5094330;28;20207;-44
2023/06/29 00:14:56;;;;;;;31.37;7.53;;;20.50;99.90;;;;;;5094087;28;20234;-43
2023/06/29 00:17:22;;;;;;;25.83;7.23;;;20.50;99.90;;;;;;5094297;28;20547;-43
2023/06/29 00:19:48;;;;;;;24.83;6.87;;;20.40;99.90;;;;;;5094123;28;20206;-43
2023/06/29 00:22:15;;;;;;;18.77;6.60;;;20.40;99.90;;;;;;5094184;28;20179;-43
2023/06/29 00:24:44;;;;;;;17.93;6.27;;;20.40;99.90;;;;;;5093900;28;20244;-44
2023/06/29 00:27:13;;;;;;;20.77;7.20;;;20.40;99.90;;;;;;5093882;28;20631;-43
2023/06/29 00:29:41;;;;;;;12.77;6.50;;;20.30;99.90;;;;;;5094017;28;20167;-43
2023/06/29 00:32:10;;;;;;;13.03;6.30;;;20.30;99.90;;;;;;5094271;28;20170;-44
2023/06/29 00:34:36;;;;;;;14.27;6.67;;;20.30;99.90;;;;;;5094408;28;20202;-41
2023/06/29 00:37:02;;;;;;;11.77;7.17;;;20.30;99.90;;;;;;5095166;28;20182;-43
2023/06/29 00:39:27;;;;;;;14.77;6.57;;;20.20;99.90;;;;;;5093817;28;20537;-42
2023/06/29 00:41:56;;;;;;;11.73;6.57;;;20.20;99.90;;;;;;5093773;28;20178;-46
2023/06/29 00:44:22;;;;;;;14.57;7.07;;;20.20;99.90;;;;;;5093314;28;20251;-48
2023/06/29 00:46:49;;;;;;;11.80;7.23;;;20.20;99.90;;;;;;5092903;28;20635;-48
2023/06/29 00:49:15;;;;;;;8.20;6.70;;;20.20;99.90;;;;;;5093030;28;20594;-47
2023/06/29 00:51:41;;;;;;;12.30;7.10;;;20.20;99.90;;;;;;5093190;28;20174;-49
2023/06/29 00:54:07;;;;;;;13.30;7.13;;;20.10;99.90;;;;;;5093216;28;20195;-47
2023/06/29 00:56:34;;;;;;;18.43;7.70;;;20.10;99.90;;;;;;5093519;28;20244;-48
2023/06/29 00:58:59;;;;;;;21.70;7.60;;;20.00;99.90;;;;;;5093717;28;20616;-47
2023/06/29 01:01:27;;;;;;;24.07;7.90;;;20.00;99.90;;;;;;5093909;28;20255;-47
2023/06/29 01:03:59;;;;;;;20.37;7.10;;;20.00;99.90;;;;;;5093327;28;20250;-48
2023/06/29 01:06:30;;;;;;;24.17;7.67;;;19.90;99.90;;;;;;5093694;28;20634;-46
2023/06/29 01:09:01;;;;;;;15.87;7.43;;;19.90;99.90;;;;;;5093689;28;20578;-47
2023/06/29 01:11:27;;;;;;;18.67;6.90;;;19.80;99.90;;;;;;5093723;28;20159;-45
2023/06/29 01:13:53;;;;;;;14.67;6.67;;;19.80;99.90;;;;;;5093242;28;20174;-48
2023/06/29 01:16:21;;;;;;;13.30;6.97;;;19.80;99.90;;;;;;5094113;28;20179;-47
2023/06/29 01:18:47;;;;;;;18.40;7.33;;;19.70;99.90;;;;;;5093462;28;20189;-48
2023/06/29 01:21:14;;;;;;;22.37;7.93;;;19.70;99.90;;;;;;5093169;28;20193;-48
2023/06/29 01:23:42;;;;;;;17.80;7.33;;;19.70;99.90;;;;;;5093214;28;20172;-48
2023/06/29 01:26:11;;;;;;;21.47;7.90;;;19.60;99.90;;;;;;5093177;28;20179;-48
2023/06/29 01:28:38;;;;;;;18.67;8.37;;;19.60;99.90;;;;;;5093446;28;20175;-47
2023/06/29 01:31:07;;;;;;;18.13;8.50;;;19.60;99.90;;;;;;5093358;28;20183;-48
2023/06/29 01:33:33;;;;;;;20.37;8.17;;;19.60;99.90;;;;;;5093132;28;20647;-48
2023/06/29 01:36:25;;;;;;;15.17;7.70;;;19.60;99.90;;;;;;5093012;28;20206;-49
2023/06/29 01:39:01;;;;;;;21.93;8.40;;;19.50;99.90;;;;;;5093322;28;20171;-46
2023/06/29 01:41:32;;;;;;;23.63;9.80;;;19.50;99.90;;;;;;5074861;28;20316;-48
2023/06/29 01:44:00;;;;;;;20.57;8.70;;;19.50;99.90;;;;;;5093238;28;20168;-48
2023/06/29 01:46:26;;;;;;;18.13;8.27;;;19.50;99.90;;;;;;5093246;28;20595;-49
2023/06/29 01:48:52;;;;;;;23.37;7.77;;;19.50;99.90;;;;;;5093559;28;20706;-47
2023/06/29 01:51:18;;;;;;;14.77;7.83;;;19.50;99.90;;;;;;5092944;28;20179;-47
2023/06/29 01:53:43;;;;;;;28.90;8.60;;;19.50;99.90;;;;;;5093158;28;20234;-47
2023/06/29 01:56:09;;;;;;;19.57;8.53;;;19.50;99.90;;;;;;5093052;28;20182;-46
2023/06/29 01:58:35;;;;;;;15.90;8.10;;;19.50;99.90;;;;;;5093967;28;20175;-48
2023/06/29 02:01:00;;;;;;;15.90;7.57;;;19.50;99.90;;;;;;5096970;28;20195;-48
2023/06/29 02:03:26;;;;;;;17.13;8.90;;;19.50;99.90;;;;;;5096517;28;20633;-48
2023/06/29 02:05:51;;;;;;;18.47;7.93;;;19.50;99.90;;;;;;5096772;28;20190;-48
2023/06/29 02:08:17;;;;;;;16.60;8.10;;;19.40;99.90;;;;;;5096370;28;20535;-47
2023/06/29 02:10:43;;;;;;;26.47;8.90;;;19.40;99.90;;;;;;5096149;28;20223;-48
2023/06/29 02:13:08;;;;;;;13.87;8.07;;;19.40;99.90;;;;;;5096487;28;20163;-48
2023/06/29 02:15:34;;;;;;;26.70;9.50;;;19.50;99.90;;;;;;5096256;28;20248;-47
2023/06/29 02:17:59;;;;;;;16.80;8.57;;;19.40;99.90;;;;;;5096119;28;20175;-46
2023/06/29 02:20:25;;;;;;;16.43;7.93;;;19.40;99.90;;;;;;5096403;28;20199;-47
2023/06/29 02:22:50;;;;;;;19.53;8.33;;;19.40;99.90;;;;;;5096167;28;20237;-48
2023/06/29 02:25:17;;;;;;;20.07;8.50;;;19.40;99.90;;;;;;5096171;28;20190;-48
2023/06/29 02:27:42;;;;;;;16.63;8.20;;;19.30;99.90;;;;;;5096632;28;20179;-48
2023/06/29 02:30:09;;;;;;;16.20;7.73;;;19.30;99.90;;;;;;5096084;28;20181;-47
2023/06/29 02:32:34;;;;;;;14.77;7.90;;;19.30;99.90;;;;;;5096313;28;20179;-48
2023/06/29 02:35:00;;;;;;;21.20;8.07;;;19.30;99.90;;;;;;5095914;28;20252;-47
2023/06/29 02:37:25;;;;;;;20.70;8.53;;;19.30;99.90;;;;;;5095927;28;20178;-48
2023/06/29 02:39:51;;;;;;;22.93;8.77;;;19.30;99.90;;;;;;5095828;28;20202;-47
2023/06/29 02:42:16;;;;;;;17.50;9.37;;;19.30;99.90;;;;;;5078008;28;20258;-47
2023/06/29 02:44:42;;;;;;;34.57;9.73;;;19.30;99.90;;;;;;5096274;28;20259;-47
2023/06/29 02:47:07;;;;;;;19.23;8.30;;;19.20;99.90;;;;;;5096099;28;20684;-47
2023/06/29 02:49:33;;;;;;;24.57;9.00;;;19.20;99.90;;;;;;5095955;28;20214;-48
2023/06/29 02:51:59;;;;;;;30.77;9.80;;;19.20;99.90;;;;;;5095657;28;20228;-47
2023/06/29 02:54:24;;;;;;;24.13;8.87;;;19.20;99.90;;;;;;5095564;28;20198;-46
2023/06/29 02:56:50;;;;;;;25.17;9.20;;;19.10;99.90;;;;;;5095411;28;20198;-45
2023/06/29 02:59:16;;;;;;;16.50;9.23;;;19.10;99.90;;;;;;5095724;28;20597;-49
2023/06/29 03:01:41;;;;;;;21.03;9.20;;;19.10;99.90;;;;;;5095755;28;20530;-49
2023/06/29 03:04:07;;;;;;;21.73;9.20;;;19.00;99.90;;;;;;5077212;28;20248;-47
2023/06/29 03:06:32;;;;;;;21.93;9.37;;;19.10;99.90;;;;;;5096398;28;20262;-47
2023/06/29 03:08:58;;;;;;;21.27;8.40;;;19.10;99.90;;;;;;5095552;28;20203;-49
2023/06/29 03:11:24;;;;;;;13.80;8.73;;;19.10;99.90;;;;;;5094610;28;20175;-49
2023/06/29 03:13:50;;;;;;;16.90;8.20;;;19.10;99.90;;;;;;5095384;28;20661;-49
2023/06/29 03:16:16;;;;;;;17.70;9.17;;;19.10;99.90;;;;;;5095468;28;20232;-47
2023/06/29 03:18:42;;;;;;;17.80;8.83;;;19.10;99.90;;;;;;5095104;28;20171;-47
2023/06/29 03:21:08;;;;;;;29.13;9.23;;;19.10;99.90;;;;;;5095046;28;20210;-49
2023/06/29 03:23:33;;;;;;;20.37;8.23;;;19.10;99.90;;;;;;5095328;28;20274;-48
2023/06/29 03:25:59;;;;;;;28.27;9.40;;;19.00;99.90;;;;;;5076719;28;20199;-47
2023/06/29 03:28:25;;;;;;;23.37;9.93;;;19.00;99.90;;;;;;5094943;28;20718;-49
2023/06/29 03:30:50;;;;;;;23.93;8.93;;;19.00;99.90;;;;;;5094908;28;20187;-47
2023/06/29 03:33:16;;;;;;;24.20;9.10;;;19.00;99.90;;;;;;5094771;28;20227;-47
2023/06/29 03:35:41;;;;;;;24.53;8.80;;;18.90;99.90;;;;;;5094988;28;20245;-47
2023/06/29 03:38:09;;;;;;;19.63;8.20;;;19.00;99.90;;;;;;5095019;28;20620;-47
2023/06/29 03:40:35;;;;;;;25.23;9.50;;;19.00;99.90;;;;;;5095045;28;20214;-43
2023/06/29 03:43:02;;;;;;;17.80;8.20;;;19.00;99.90;;;;;;5094732;28;20167;-41
2023/06/29 03:45:27;;;;;;;22.83;9.00;;;19.00;99.90;;;;;;5094473;28;20734;-41
2023/06/29 03:47:53;;;;;;;25.90;9.47;;;19.00;99.90;;;;;;5094753;28;20235;-41
2023/06/29 03:50:18;;;;;;;26.63;8.50;;;19.00;99.90;;;;;;5094545;28;20672;-43
2023/06/29 03:52:44;;;;;;;23.27;8.53;;;19.10;99.90;;;;;;5094811;28;20183;-41
2023/06/29 03:55:09;;;;;;;28.03;10.53;;;19.10;99.90;;;;;;5094285;28;20203;-41
2023/06/29 03:57:35;;;;;;;26.27;9.73;;;19.10;99.90;;;;;;5094207;28;20201;-41
2023/06/29 04:00:01;;;;;;;22.53;9.30;;;19.10;99.90;;;;;;5094368;28;20278;-44
2023/06/29 04:02:26;;;;;;;25.37;9.90;;;19.10;99.90;;;;;;5095188;28;20646;-41
2023/06/29 04:04:52;;;;;;;16.83;8.57;;;19.10;99.90;;;;;;5094213;28;20282;-42
2023/06/29 04:07:17;;;;;;;17.50;9.50;;;19.10;99.90;;;;;;5094195;28;20167;-42
2023/06/29 04:09:43;;;;;;;21.90;9.17;;;19.10;99.90;;;;;;5094099;28;20183;-42
2023/06/29 04:12:09;;;;;;;24.53;8.73;;;19.10;99.90;;;;;;5094262;28;20178;-41
2023/06/29 04:14:34;;;;;;;25.87;9.27;;;19.10;99.90;;;;;;5094390;28;20293;-40
2023/06/29 04:17:00;;;;;;;15.47;8.33;;;19.10;99.90;;;;;;5094069;28;20627;-39
2023/06/29 04:19:25;;;;;;;18.37;8.80;;;19.10;99.90;;;;;;5094406;28;20178;-41
2023/06/29 04:21:51;;;;;;;16.87;8.57;;;19.10;99.90;;;;;;5093739;28;20179;-40
2023/06/29 04:24:17;;;;;;;15.03;8.93;;;19.10;99.90;;;;;;5094306;28;20193;-42
2023/06/29 04:26:42;;;;;;;23.00;8.53;;;19.10;99.90;;;;;;5094105;28;20301;-42
2023/06/29 04:29:09;;;;;;;18.77;8.40;;;19.10;99.90;;;;;;5094088;28;20171;-40
2023/06/29 04:31:35;;;;;;;16.40;9.60;;;19.20;99.90;;;;;;5094207;28;20179;-40
2023/06/29 04:34:02;;;;;;;15.57;8.57;;;19.20;99.90;;;;;;5093997;28;20258;-43
2023/06/29 04:36:28;;;;;;;19.63;8.70;;;19.20;99.90;;;;;;5094246;28;20581;-41
2023/06/29 04:38:54;;;;;;;20.90;9.07;;;19.20;99.90;;;;;;5094164;28;20198;-39
2023/06/29 04:41:24;;;;;;;16.87;8.57;;;19.20;99.90;;;;;;5094032;28;20234;-41
2023/06/29 04:43:51;;;;;;;16.63;8.87;;;19.20;99.90;;;;;;5094089;28;20170;-41
2023/06/29 04:46:17;;;;;;;21.40;9.00;;;19.30;99.90;;;;;;5094112;28;20175;-42
2023/06/29 04:48:46;;;;;;;23.87;8.53;;;19.30;99.90;;;;;;5093846;28;20523;-41
2023/06/29 04:51:13;;;;;;;18.80;8.67;;;19.30;99.90;;;;;;5094038;28;20178;-44
2023/06/29 04:53:38;;;;;;;26.40;9.20;;;19.40;99.90;;;;;;5093867;28;20224;-39
2023/06/29 04:56:04;;;;;;;21.87;9.00;;;19.40;99.90;;;;;;5093502;28;20198;-39
2023/06/29 04:58:30;;;;;;;16.03;8.50;;;19.50;99.90;;;;;;5093671;28;20183;-40
2023/06/29 05:00:56;;;;;;;18.80;8.90;;;19.50;99.90;;;;;;5093796;28;20195;-40
2023/06/29 05:03:23;;;;;;;15.07;8.73;;;19.50;99.90;;;;;;5093780;28;20523;-41
2023/06/29 05:05:49;;;;;;;24.23;9.07;;;19.60;99.90;;;;;;5093776;28;20678;-41
2023/06/29 05:08:14;;;;;;;20.87;9.10;;;19.60;99.90;;;;;;5094004;28;20257;-42
2023/06/29 05:10:40;;;;;;;22.47;8.43;;;19.60;99.90;;;;;;5093426;28;20570;-43
2023/06/29 05:13:05;;;;;;;16.97;8.33;;;19.70;99.90;;;;;;5093659;28;20191;-43
2023/06/29 05:15:31;;;;;;;14.73;8.33;;;19.70;99.90;;;;;;5093461;28;20684;-43
2023/06/29 05:17:56;;;;;;;15.73;7.77;;;19.70;99.90;;;;;;5093649;28;20179;-40
2023/06/29 05:20:22;;;;;;;19.23;8.33;;;19.70;99.90;;;;;;5093644;28;20202;-42
2023/06/29 05:22:48;;;;;;;13.17;8.40;;;19.70;99.90;;;;;;5093608;28;20210;-43
2023/06/29 05:25:14;;;;;;;23.70;8.60;;;19.70;99.90;;;;;;5093264;28;20315;-41
2023/06/29 05:27:41;;;;;;;17.00;8.03;;;19.70;99.90;;;;;;5093369;28;20224;-42
2023/06/29 05:30:08;;;;;;;19.63;7.90;;;19.70;99.90;;;;;;5093234;28;20187;-43
2023/06/29 05:32:34;;;;;;;16.17;8.10;;;19.70;99.90;;;;;;5093585;28;20197;-41
2023/06/29 05:35:00;;;;;;;23.67;8.83;;;19.80;99.90;;;;;;5096447;28;20195;-44
2023/06/29 05:37:27;;;;;;;20.47;7.93;;;19.80;99.90;;;;;;5097537;28;20191;-40
2023/06/29 05:39:54;;;;;;;15.80;8.70;;;19.90;99.90;;;;;;5097163;28;20566;-43
2023/06/29 05:42:20;;;;;;;23.57;8.73;;;20.00;99.90;;;;;;5097368;28;20539;-41
2023/06/29 05:44:45;;;;;;;22.87;9.00;;;20.00;99.90;;;;;;5097110;28;20190;-42
2023/06/29 05:47:11;;;;;;;15.20;8.77;;;20.10;99.90;;;;;;5097036;28;20179;-43
2023/06/29 05:49:36;;;;;;;21.80;9.97;;;20.30;99.90;;;;;;5097635;28;20186;-43
2023/06/29 05:52:02;;;;;;;14.03;9.37;;;20.50;99.90;;;;;;5097487;28;20296;-43
2023/06/29 05:54:28;;;;;;;15.40;9.23;;;20.70;99.90;;;;;;5097206;28;20214;-41
2023/06/29 05:56:53;;;;;;;15.87;9.50;;;20.80;99.90;;;;;;5096962;28;20201;-42
2023/06/29 05:59:19;;;;;;;15.67;8.73;;;21.00;99.90;;;;;;5096795;28;20228;-41
2023/06/29 06:01:44;;;;;;;17.43;10.03;;;21.10;99.90;;;;;;5097022;28;20228;-43
2023/06/29 06:04:10;;;;;;;17.87;10.20;;;21.20;99.90;;;;;;5097138;28;20663;-43
2023/06/29 06:06:36;;;;;;;16.33;9.37;;;21.40;99.90;;;;;;5097313;28;20242;-42
2023/06/29 06:09:02;;;;;;;22.40;10.53;;;21.50;99.90;;;;;;5096599;28;20171;-43
2023/06/29 06:11:28;;;;;;;18.27;10.13;;;21.60;99.90;;;;;;5096581;28;20181;-41
2023/06/29 06:13:54;;;;;;;19.90;10.90;;;21.70;99.90;;;;;;5096538;28;20647;-42
2023/06/29 06:16:20;;;;;;;17.40;9.90;;;21.70;99.90;;;;;;5096569;28;20179;-43
2023/06/29 06:18:46;;;;;;;15.57;10.33;;;21.80;99.90;;;;;;5096579;28;20187;-42
2023/06/29 06:21:11;;;;;;;18.80;10.40;;;21.90;99.90;;;;;;5096865;28;20217;-42
2023/06/29 06:23:37;;;;;;;17.33;9.80;;;21.90;99.90;;;;;;5096542;28;20704;-44
2023/06/29 06:26:02;;;;;;;18.97;11.00;;;21.90;99.90;;;;;;5096227;28;20198;-42
2023/06/29 06:28:28;;;;;;;14.60;10.23;;;21.80;99.90;;;;;;5096283;28;20539;-42
2023/06/29 06:30:53;;;;;;;20.03;10.90;;;21.80;99.90;;;;;;5096268;28;20186;-44
2023/06/29 06:33:19;;;;;;;17.03;10.13;;;21.90;99.90;;;;;;5096169;28;20655;-43
2023/06/29 06:35:45;;;;;;;18.47;10.10;;;21.90;99.90;;;;;;5096188;28;20203;-42
2023/06/29 06:38:10;;;;;;;18.47;10.87;;;22.00;99.90;;;;;;5096255;28;20179;-40
2023/06/29 06:40:36;;;;;;;17.20;10.27;;;21.90;99.90;;;;;;5095995;28;20205;-39
2023/06/29 06:43:02;;;;;;;16.63;11.30;;;22.00;99.90;;;;;;5096047;28;20205;-41
2023/06/29 06:45:27;;;;;;;20.73;12.17;;;22.10;99.90;;;;;;5095919;28;20210;-41
2023/06/29 06:47:53;;;;;;;21.40;11.83;;;22.10;99.90;;;;;;5096167;28;20222;-42
2023/06/29 06:50:20;;;;;;;19.73;12.30;;;22.10;99.90;;;;;;5095915;28;20183;-41
2023/06/29 06:52:46;;;;;;;25.53;11.90;;;22.10;99.90;;;;;;5096012;28;20178;-42
2023/06/29 06:55:12;;;;;;;24.63;12.60;;;22.10;99.90;;;;;;5095733;28;20202;-44
2023/06/29 06:57:37;;;;;;;23.70;13.33;;;22.20;99.90;;;;;;5095723;28;20335;-42
2023/06/29 07:00:04;;;;;;;19.50;13.60;;;22.10;99.90;;;;;;5095728;28;20210;-42
2023/06/29 07:02:30;;;;;;;22.67;13.10;;;22.10;99.90;;;;;;5095990;28;20175;-42
2023/06/29 07:04:56;;;;;;;21.00;13.17;;;22.00;99.90;;;;;;5095519;28;20191;-42
2023/06/29 07:07:21;;;;;;;27.03;12.60;;;22.10;99.90;;;;;;5095783;28;20266;-40
2023/06/29 07:09:47;;;;;;;20.47;12.33;;;22.00;99.90;;;;;;5095584;28;20183;-40
2023/06/29 07:12:13;;;;;;;27.10;12.97;;;22.00;99.90;;;;;;5077260;28;20197;-43
2023/06/29 07:14:39;;;;;;;20.13;13.53;;;22.00;99.90;;;;;;5095527;28;20198;-43
2023/06/29 07:17:05;;;;;;;17.73;12.77;;;22.10;99.90;;;;;;5096064;28;20620;-43
2023/06/29 07:19:31;;;;;;;19.90;11.93;;;22.10;99.90;;;;;;5095133;28;20183;-42
2023/06/29 07:21:56;;;;;;;21.23;13.27;;;22.20;99.90;;;;;;5095633;28;20175;-40
2023/06/29 07:24:22;;;;;;;19.43;13.03;;;22.10;99.90;;;;;;5095194;28;20265;-42
2023/06/29 07:26:47;;;;;;;24.17;14.00;;;22.20;99.90;;;;;;5095447;28;20197;-43
2023/06/29 07:29:13;;;;;;;22.73;13.93;;;22.30;99.90;;;;;;5076951;28;20182;-41
2023/06/29 07:31:39;;;;;;;18.30;12.70;;;22.40;99.90;;;;;;5095229;28;20183;-44
2023/06/29 07:34:05;;;;;;;22.43;13.57;;;22.40;99.90;;;;;;5094956;28;20674;-42
2023/06/29 07:36:30;;;;;;;22.83;13.97;;;22.60;99.90;;;;;;5095232;28;20175;-42
2023/06/29 07:38:56;;;;;;;19.80;13.43;;;22.60;99.90;;;;;;5094793;28;20240;-43
2023/06/29 07:41:22;;;;;;;21.40;13.57;;;22.70;99.90;;;;;;5094967;28;20198;-43
2023/06/29 07:43:53;;;;;;;21.07;13.37;;;22.90;99.90;;;;;;5094751;28;20175;-43
2023/06/29 07:46:19;;;;;;;25.43;13.50;;;23.00;99.90;;;;;;5094979;28;20237;-44
2023/06/29 07:48:47;;;;;;;18.43;13.07;;;23.10;99.90;;;;;;5094852;28;20639;-41
2023/06/29 07:51:12;;;;;;;20.53;13.53;;;23.20;99.90;;;;;;5095252;28;20171;-42
2023/06/29 07:53:38;;;;;;;28.27;14.23;;;23.30;99.90;;;;;;5094745;28;20170;-42
2023/06/29 07:56:04;;;;;;;23.40;13.77;;;23.50;99.90;;;;;;5094202;28;20205;-42
2023/06/29 07:58:29;;;;;;;22.10;13.87;;;23.60;99.90;;;;;;5094791;28;20186;-43
2023/06/29 08:00:55;;;;;;;23.63;13.77;;;23.70;99.90;;;;;;5094928;28;20558;-43
2023/06/29 08:03:22;;;;;;;20.00;13.73;;;23.90;99.90;;;;;;5094450;28;20182;-42
2023/06/29 08:05:47;;;;;;;22.00;13.40;;;24.00;99.90;;;;;;5094351;28;20273;-42
2023/06/29 08:08:13;;;;;;;19.73;12.77;;;24.10;99.90;;;;;;5093098;28;20209;-42
2023/06/29 08:10:39;;;;;;;24.87;14.33;;;24.20;99.90;;;;;;5094283;28;20207;-43
2023/06/29 08:13:04;;;;;;;18.43;12.87;;;24.50;99.90;;;;;;5094489;28;20186;-44
2023/06/29 08:15:30;;;;;;;19.97;13.60;;;24.70;99.90;;;;;;5094235;28;20659;-43
2023/06/29 08:17:55;;;;;;;21.83;14.07;;;24.90;99.90;;;;;;5094142;28;20252;-43
2023/06/29 08:20:22;;;;;;;23.70;13.17;;;25.00;99.90;;;;;;5094361;28;20201;-41
2023/06/29 08:22:48;;;;;;;22.40;13.73;;;25.00;99.90;;;;;;5094424;28;20203;-43
2023/06/29 08:25:14;;;;;;;24.57;14.20;;;25.10;99.90;;;;;;5094295;28;20226;-43
2023/06/29 08:27:41;;;;;;;19.53;13.07;;;25.20;99.90;;;;;;5094052;28;20646;-42
2023/06/29 08:30:07;;;;;;;24.27;13.73;;;25.20;99.90;;;;;;5094006;28;20175;-42
2023/06/29 08:32:33;;;;;;;23.50;14.50;;;25.30;99.90;;;;;;5093946;28;20182;-44
2023/06/29 08:34:58;;;;;;;18.83;13.10;;;25.30;99.90;;;;;;5093847;28;20574;-41
2023/06/29 08:37:24;;;;;;;27.03;14.23;;;25.30;99.90;;;;;;5094052;28;20553;-42
2023/06/29 08:39:49;;;;;;;21.53;13.93;;;25.30;99.90;;;;;;5093833;28;20617;-44
2023/06/29 08:42:15;;;;;;;18.63;13.13;;;25.30;99.90;;;;;;5093891;28;20175;-41
2023/06/29 08:44:41;;;;;;;24.23;13.97;;;25.40;99.90;;;;;;5093871;28;20187;-43
2023/06/29 08:47:07;;;;;;;21.57;13.70;;;25.50;99.90;;;;;;5093751;28;20543;-44
2023/06/29 08:49:38;;;;;;;24.43;14.50;;;25.60;99.90;;;;;;5094552;28;20539;-42
2023/06/29 08:52:06;;;;;;;21.27;13.33;;;25.60;99.90;;;;;;5092451;28;20706;-43
2023/06/29 08:54:32;;;;;;;19.03;13.97;;;25.70;99.90;;;;;;5093655;28;20191;-41
2023/06/29 08:57:02;;;;;;;16.63;12.17;;;25.80;99.90;;;;;;5093917;28;20186;-43
2023/06/29 08:59:28;;;;;;;17.70;12.30;;;25.80;99.90;;;;;;5093623;28;20175;-44
2023/06/29 09:01:58;;;;;;;20.03;11.93;;;25.90;99.90;;;;;;5093510;28;20264;-41
2023/06/29 09:04:24;;;;;;;20.20;13.27;;;26.00;99.90;;;;;;5093785;28;20191;-42
2023/06/29 09:06:53;;;;;;;20.40;12.37;;;26.10;99.90;;;;;;5092453;28;20179;-43
2023/06/29 09:09:19;;;;;;;16.20;11.47;;;26.20;99.90;;;;;;5098710;28;20175;-44
2023/06/29 09:11:45;;;;;;;17.87;11.63;;;26.40;99.90;;;;;;5100494;28;20173;-43
2023/06/29 09:14:11;;;;;;;18.83;12.17;;;26.50;99.90;;;;;;5100141;28;20630;-43
2023/06/29 09:16:52;;;;;;;18.37;12.03;;;26.60;99.90;;;;;;5100395;28;20220;-45
2023/06/29 09:19:19;;;;;;;15.10;10.40;;;26.70;99.90;;;;;;5100484;28;20592;-42
2023/06/29 09:21:48;;;;;;;16.30;10.07;;;26.80;99.90;;;;;;5099983;28;20293;-43
2023/06/29 09:24:14;;;;;;;13.17;10.37;;;26.90;99.90;;;;;;5100297;28;20289;-43
2023/06/29 09:26:40;;;;;;;17.10;10.37;;;27.00;99.90;;;;;;5100307;28;20199;-44
2023/06/29 09:29:06;;;;;;;14.90;10.60;;;27.10;99.90;;;;;;5100306;28;20227;-44
2023/06/29 09:31:35;;;;;;;16.13;11.50;;;27.20;99.90;;;;;;5100286;28;20253;-43
2023/06/29 09:34:18;;;;;;;14.80;11.37;;;27.30;99.90;;;;;;5099952;28;20544;-44
2023/06/29 09:36:45;;;;;;;16.53;10.93;;;27.40;99.90;;;;;;5100040;28;20174;-43
2023/06/29 09:39:12;;;;;;;15.97;10.67;;;27.50;99.90;;;;;;5100096;28;20273;-43
2023/06/29 09:41:51;;;;;;;16.73;10.83;;;27.60;99.90;;;;;;5099841;28;20190;-43
2023/06/29 09:44:20;;;;;;;15.70;10.83;;;27.70;99.90;;;;;;5100154;28;20282;-44
2023/06/29 09:46:50;;;;;;;14.10;10.57;;;27.80;99.90;;;;;;5099808;28;20549;-44
2023/06/29 09:49:18;;;;;;;15.23;10.97;;;27.80;99.90;;;;;;5100003;28;20218;-43
2023/06/29 09:51:44;;;;;;;15.27;10.27;;;27.80;99.90;;;;;;5099794;28;20178;-44
2023/06/29 09:54:14;;;;;;;15.23;10.63;;;27.80;99.90;;;;;;5099748;28;20190;-44
2023/06/29 09:56:41;;;;;;;17.80;11.27;;;27.70;99.90;;;;;;5100048;28;20191;-44
2023/06/29 09:59:10;;;;;;;15.07;10.93;;;27.70;99.90;;;;;;5099987;28;20178;-44
2023/06/29 10:01:42;;;;;;;18.47;11.13;;;27.70;99.90;;;;;;5100067;28;20562;-44
2023/06/29 10:04:08;;;;;;;20.27;11.23;;;27.70;99.90;;;;;;5099862;28;20686;-44
2023/06/29 10:06:46;;;;;;;16.23;11.87;;;27.70;99.90;;;;;;5099956;28;20171;-44
2023/06/29 10:09:17;;;;;;;17.47;11.47;;;27.70;99.90;;;;;;5099767;28;20168;-43
2023/06/29 10:11:47;;;;;;;17.80;12.50;;;27.60;99.90;;;;;;5099841;28;20178;-44
2023/06/29 10:14:14;;;;;;;17.10;11.93;;;27.50;99.90;;;;;;5099900;28;20199;-42
2023/06/29 10:16:44;;;;;;;16.23;11.63;;;27.30;99.90;;;;;;5081380;28;20185;-43
2023/06/29 10:19:15;;;;;;;18.30;12.03;;;27.20;99.90;;;;;;5099288;28;20639;-44
2023/06/29 10:21:43;;;;;;;16.63;12.50;;;27.10;99.90;;;;;;5096543;28;20195;-44
2023/06/29 10:24:12;;;;;;;14.80;10.93;;;26.80;99.90;;;;;;5096203;28;20187;-42
2023/06/29 10:26:38;;;;;;;17.30;11.23;;;26.60;99.90;;;;;;5096313;28;20207;-43
2023/06/29 10:29:05;;;;;;;11.87;9.80;;;26.60;99.90;;;;;;5096385;28;20174;-44
2023/06/29 10:31:32;;;;;;;15.17;10.63;;;26.70;99.90;;;;;;5096068;28;20670;-43
2023/06/29 10:33:58;;;;;;;14.57;10.07;;;26.60;99.90;;;;;;5095984;28;20522;-44
2023/06/29 10:36:24;;;;;;;20.20;11.73;;;26.60;99.90;;;;;;5096221;28;20181;-41
2023/06/29 10:38:50;;;;;;;17.13;11.57;;;26.50;99.90;;;;;;5096260;28;20179;-41
2023/06/29 10:41:26;;;;;;;18.90;11.77;;;26.50;99.90;;;;;;5096101;28;20733;-41
2023/06/29 10:43:55;;;;;;;16.20;11.37;;;26.50;99.90;;;;;;5096091;28;20180;-42
2023/06/29 10:46:47;;;;;;;18.57;11.73;;;26.60;99.90;;;;;;5096172;28;20175;-43
2023/06/29 10:49:28;;;;;;;14.83;11.10;;;26.70;99.90;;;;;;5095768;28;20658;-43
2023/06/29 10:52:04;;;;;;;20.33;12.20;;;26.90;99.90;;;;;;5095804;28;20182;-43
2023/06/29 10:54:30;;;;;;;20.07;11.73;;;27.00;99.90;;;;;;5095699;28;20194;-44
2023/06/29 10:56:57;;;;;;;16.90;12.07;;;27.10;99.90;;;;;;5095768;28;20187;-44
2023/06/29 10:59:23;;;;;;;16.30;12.00;;;27.20;99.90;;;;;;5095545;28;20182;-44
2023/06/29 11:01:50;;;;;;;20.87;12.50;;;27.50;99.90;;;;;;5095467;28;20202;-43
2023/06/29 11:04:16;;;;;;;18.43;13.20;;;27.70;99.90;;;;;;5095431;28;20244;-43
2023/06/29 11:06:42;;;;;;;19.03;12.20;;;27.60;99.90;;;;;;5094417;28;20183;-43
2023/06/29 11:09:14;;;;;;;17.77;12.40;;;27.60;99.90;;;;;;5095515;28;20198;-43
2023/06/29 11:11:47;;;;;;;18.90;12.70;;;27.70;99.90;;;;;;5095308;28;20216;-44
2023/06/29 11:14:13;;;;;;;17.57;11.97;;;28.00;99.90;;;;;;5095269;28;20566;-43
2023/06/29 11:16:41;;;;;;;16.67;11.43;;;28.10;99.90;;;;;;5095178;28;20411;-43
2023/06/29 11:19:08;;;;;;;15.90;11.10;;;27.90;99.90;;;;;;5095444;28;20193;-43
2023/06/29 11:21:33;;;;;;;15.90;11.27;;;28.00;99.90;;;;;;5095311;28;20301;-44
2023/06/29 11:24:00;;;;;;;15.30;11.40;;;27.90;99.90;;;;;;5095401;28;20198;-44
2023/06/29 11:26:29;;;;;;;17.60;12.13;;;27.80;99.90;;;;;;5095258;28;20175;-42
2023/06/29 11:28:55;;;;;;;14.87;11.73;;;27.60;99.90;;;;;;5095210;28;20197;-41
2023/06/29 11:31:21;;;;;;;19.73;11.60;;;27.50;99.90;;;;;;5094475;28;20174;-41
2023/06/29 11:33:47;;;;;;;19.80;11.57;;;27.40;99.90;;;;;;5095099;28;20274;-43
2023/06/29 11:36:13;;;;;;;15.03;11.93;;;27.40;99.90;;;;;;5095132;28;20202;-45
2023/06/29 11:38:39;;;;;;;14.90;11.97;;;27.30;99.90;;;;;;5095121;28;20567;-44
2023/06/29 11:41:05;;;;;;;20.87;12.97;;;27.40;99.90;;;;;;5094650;28;20679;-44
2023/06/29 11:43:31;;;;;;;16.83;12.40;;;27.40;99.90;;;;;;5094794;28;20203;-44
2023/06/29 11:45:57;;;;;;;16.70;12.33;;;27.30;99.90;;;;;;5094630;28;20214;-43
2023/06/29 11:48:23;;;;;;;20.77;12.60;;;27.30;99.90;;;;;;5094635;28;20170;-44
2023/06/29 11:50:48;;;;;;;18.00;13.70;;;27.30;99.90;;;;;;5094612;28;20534;-42
2023/06/29 11:53:15;;;;;;;19.00;13.43;;;27.20;99.90;;;;;;5094780;28;20182;-43
2023/06/29 11:55:53;;;;;;;18.87;13.10;;;27.10;99.90;;;;;;5094378;28;20202;-42
2023/06/29 11:58:18;;;;;;;19.10;13.53;;;27.10;99.90;;;;;;5094347;28;20629;-42
2023/06/29 12:00:44;;;;;;;18.93;13.40;;;27.00;99.90;;;;;;5094391;28;20273;-44
2023/06/29 12:03:10;;;;;;;18.37;12.73;;;27.00;99.90;;;;;;5094697;28;20670;-41
2023/06/29 12:05:43;;;;;;;16.27;13.83;;;26.90;99.90;;;;;;5094513;28;20203;-42
2023/06/29 12:08:09;;;;;;;18.33;13.07;;;26.80;99.90;;;;;;5094280;28;20175;-41
2023/06/29 12:10:37;;;;;;;16.97;13.83;;;26.70;99.90;;;;;;5094607;28;20193;-41
2023/06/29 12:13:03;;;;;;;17.87;13.23;;;26.60;99.90;;;;;;5094574;28;20171;-41
2023/06/29 12:15:32;;;;;;;18.13;14.10;;;26.50;99.90;;;;;;5094164;28;20197;-41
2023/06/29 12:18:07;;;;;;;18.00;13.70;;;26.50;99.90;;;;;;5094158;28;20175;-42
2023/06/29 12:20:41;;;;;;;19.80;13.97;;;26.40;99.90;;;;;;5093952;28;20249;-43
2023/06/29 12:23:07;;;;;;;19.43;13.83;;;26.40;99.90;;;;;;5094324;28;20163;-45
2023/06/29 12:25:44;;;;;;;18.40;13.47;;;26.30;99.90;;;;;;5093910;28;20717;-43
2023/06/29 12:28:10;;;;;;;19.43;13.23;;;26.20;99.90;;;;;;5094380;28;20246;-43